Time,TemperatureF,DewpointF,PressureIn,WindDirection,WindDirectionDegrees,WindSpeedMPH,WindSpeedGustMPH,Humidity,HourlyPrecipIn,Conditions,Clouds,dailyrainin,SoftwareType,DateUTC
2013-02-14 00:00:00,31.8,29.0,28.85,ENE,68,0.0,0.0,89,0.00,,---,0.00,VWS V14.01,2013-02-14 05:00:00,
2013-02-14 00:05:00,31.8,29.0,28.85,ENE,68,0.0,0.0,89,0.00,,---,0.00,VWS V14.01,2013-02-14 05:05:00,
2013-02-14 00:10:00,31.6,28.8,28.85,ENE,68,0.0,0.0,89,0.00,,---,0.00,VWS V14.01,2013-02-14 05:10:00,
2013-02-14 00:15:00,31.5,28.6,28.85,ENE,68,0.0,0.0,89,0.00,,---,0.00,VWS V14.01,2013-02-14 05:15:00,
2013-02-14 00:16:00,31.5,28.6,28.85,ENE,68,0.0,0.0,89,0.00,,---,0.00,VWS V14.01,2013-02-14 05:16:00,
2013-02-14 00:21:00,31.5,28.9,28.85,ENE,68,0.0,0.0,90,0.00,,---,0.00,VWS V14.01,2013-02-14 05:21:00,
2013-02-14 00:26:00,31.5,28.9,28.85,ENE,68,0.0,0.0,90,0.00,,---,0.00,VWS V14.01,2013-02-14 05:26:00,
2013-02-14 00:30:00,31.5,28.9,28.85,ENE,68,0.0,0.0,90,0.00,,---,0.00,VWS V14.01,2013-02-14 05:30:00,
2013-02-14 00:35:00,31.3,28.7,28.85,ENE,68,0.0,0.0,90,0.00,,---,0.00,VWS V14.01,2013-02-14 05:35:00,
2013-02-14 00:40:00,31.3,28.7,28.85,ENE,68,0.0,0.0,90,0.00,,---,0.00,VWS V14.01,2013-02-14 05:40:00,
2013-02-14 00:46:00,31.3,28.7,28.88,ENE,68,0.0,0.0,90,0.00,,---,0.00,VWS V14.01,2013-02-14 05:46:00,
2013-02-14 00:52:00,31.3,28.7,28.88,ENE,68,0.0,0.0,90,0.00,,---,0.00,VWS V14.01,2013-02-14 05:52:00,
2013-02-14 00:57:00,31.3,28.7,28.88,ENE,68,0.0,0.0,90,0.00,,---,0.00,VWS V14.01,2013-02-14 05:57:00,
2013-02-14 01:02:00,31.3,28.7,28.88,ENE,68,0.0,0.0,90,0.00,,---,0.00,VWS V14.01,2013-02-14 06:02:00,
2013-02-14 01:07:00,31.3,28.7,28.88,ENE,68,0.0,0.0,90,0.00,,---,0.00,VWS V14.01,2013-02-14 06:07:00,
2013-02-14 01:12:00,31.1,28.5,28.88,ENE,68,0.0,0.0,90,0.00,,---,0.00,VWS V14.01,2013-02-14 06:12:00,
2013-02-14 01:17:00,31.1,28.5,28.88,ENE,68,0.0,0.0,90,0.00,,---,0.00,VWS V14.01,2013-02-14 06:17:00,
2013-02-14 01:22:00,31.1,28.5,28.88,ENE,68,0.0,0.0,90,0.00,,---,0.00,VWS V14.01,2013-02-14 06:22:00,
2013-02-14 01:28:00,31.1,28.8,28.88,ENE,68,0.0,0.0,91,0.00,,---,0.00,VWS V14.01,2013-02-14 06:28:00,
2013-02-14 01:33:00,30.7,28.2,28.88,ENE,68,0.0,0.0,90,0.00,,---,0.00,VWS V14.01,2013-02-14 06:33:00,
2013-02-14 01:38:00,30.4,27.8,28.88,ENE,68,0.0,0.0,90,0.00,,---,0.00,VWS V14.01,2013-02-14 06:38:00,
2013-02-14 01:43:00,30.2,27.6,28.88,ENE,68,0.0,0.0,90,0.00,,---,0.00,VWS V14.01,2013-02-14 06:43:00,
2013-02-14 01:48:00,29.8,27.3,28.88,ENE,68,0.0,0.0,90,0.00,,---,0.00,VWS V14.01,2013-02-14 06:48:00,
2013-02-14 01:53:00,29.7,26.8,28.88,ENE,68,0.0,0.0,89,0.00,,---,0.00,VWS V14.01,2013-02-14 06:53:00,
2013-02-14 01:59:00,29.7,26.8,28.88,ENE,68,0.0,0.0,89,0.00,,---,0.00,VWS V14.01,2013-02-14 06:59:00,
2013-02-14 02:04:00,29.7,26.8,28.88,ENE,68,0.0,0.0,89,0.00,,---,0.00,VWS V14.01,2013-02-14 07:04:00,
2013-02-14 02:09:00,29.7,27.1,28.88,ENE,68,0.0,0.0,90,0.00,,---,0.00,VWS V14.01,2013-02-14 07:09:00,
2013-02-14 02:14:00,29.8,27.3,28.88,ENE,68,0.0,0.0,90,0.00,,---,0.00,VWS V14.01,2013-02-14 07:14:00,
2013-02-14 02:19:00,30.0,27.5,28.91,ENE,68,0.0,0.0,90,0.00,,---,0.00,VWS V14.01,2013-02-14 07:19:00,
2013-02-14 02:24:00,30.4,27.8,28.91,ENE,68,0.0,0.0,90,0.00,,---,0.00,VWS V14.01,2013-02-14 07:24:00,
2013-02-14 02:30:00,30.6,28.2,28.91,ENE,68,0.0,0.0,91,0.00,,---,0.00,VWS V14.01,2013-02-14 07:30:00,
2013-02-14 02:35:00,30.7,28.4,28.91,ENE,68,0.0,0.0,91,0.00,,---,0.00,VWS V14.01,2013-02-14 07:35:00,
2013-02-14 02:40:00,30.7,28.4,28.91,ENE,68,0.0,0.0,91,0.00,,---,0.00,VWS V14.01,2013-02-14 07:40:00,
2013-02-14 02:45:00,30.6,28.2,28.91,ENE,68,0.0,0.0,91,0.00,,---,0.00,VWS V14.01,2013-02-14 07:45:00,
2013-02-14 02:50:00,30.6,28.2,28.91,ENE,68,0.0,0.0,91,0.00,,---,0.00,VWS V14.01,2013-02-14 07:50:00,
2013-02-14 02:55:00,30.6,28.2,28.91,ENE,68,0.0,0.0,91,0.00,,---,0.00,VWS V14.01,2013-02-14 07:55:00,
2013-02-14 03:00:00,30.7,28.4,28.91,ENE,68,0.0,0.0,91,0.00,,---,0.00,VWS V14.01,2013-02-14 08:00:00,
2013-02-14 03:05:00,30.7,28.4,28.91,ENE,68,0.0,0.0,91,0.00,,---,0.00,VWS V14.01,2013-02-14 08:05:00,
2013-02-14 03:10:00,30.7,28.4,28.91,ENE,68,0.0,0.0,91,0.00,,---,0.00,VWS V14.01,2013-02-14 08:10:00,
2013-02-14 03:15:00,30.7,28.4,28.91,ENE,68,0.0,0.0,91,0.00,,---,0.00,VWS V14.01,2013-02-14 08:15:00,
2013-02-14 03:20:00,30.7,28.4,28.91,ENE,68,0.0,0.0,91,0.00,,---,0.00,VWS V14.01,2013-02-14 08:20:00,
2013-02-14 03:25:00,30.7,28.4,28.91,ENE,68,0.0,0.0,91,0.00,,---,0.00,VWS V14.01,2013-02-14 08:25:00,
2013-02-14 03:31:00,30.7,28.4,28.91,ENE,68,0.0,0.0,91,0.00,,---,0.00,VWS V14.01,2013-02-14 08:31:00,
2013-02-14 03:36:00,30.7,28.4,28.91,ENE,68,0.0,0.0,91,0.00,,---,0.00,VWS V14.01,2013-02-14 08:36:00,
2013-02-14 03:42:00,30.7,28.4,28.91,ENE,68,0.0,0.0,91,0.00,,---,0.00,VWS V14.01,2013-02-14 08:42:00,
2013-02-14 03:47:00,30.6,28.2,28.94,ENE,68,0.0,0.0,91,0.00,,---,0.00,VWS V14.01,2013-02-14 08:47:00,
2013-02-14 03:52:00,30.7,28.4,28.94,ENE,68,0.0,0.0,91,0.00,,---,0.00,VWS V14.01,2013-02-14 08:52:00,
2013-02-14 03:58:00,30.7,28.4,28.94,ENE,68,0.0,0.0,91,0.00,,---,0.00,VWS V14.01,2013-02-14 08:58:00,
2013-02-14 04:04:00,30.7,28.4,28.94,ENE,68,0.0,0.0,91,0.00,,---,0.00,VWS V14.01,2013-02-14 09:04:00,
2013-02-14 04:10:00,30.6,28.2,28.94,ENE,68,0.0,0.0,91,0.00,,---,0.00,VWS V14.01,2013-02-14 09:10:00,
2013-02-14 04:15:00,30.4,28.1,28.94,ENE,68,0.0,0.0,91,0.00,,---,0.00,VWS V14.01,2013-02-14 09:15:00,
2013-02-14 04:20:00,30.2,27.6,28.94,ENE,68,0.0,0.0,90,0.00,,---,0.00,VWS V14.01,2013-02-14 09:20:00,
2013-02-14 04:25:00,29.8,27.3,28.94,ENE,68,0.0,0.0,90,0.00,,---,0.00,VWS V14.01,2013-02-14 09:25:00,
2013-02-14 04:30:00,29.5,26.9,28.94,ENE,68,0.0,0.0,90,0.00,,---,0.00,VWS V14.01,2013-02-14 09:30:00,
2013-02-14 04:36:00,29.1,26.6,28.94,ENE,68,0.0,0.0,90,0.00,,---,0.00,VWS V14.01,2013-02-14 09:36:00,
2013-02-14 04:42:00,28.8,26.2,28.94,ENE,68,0.0,0.0,90,0.00,,---,0.00,VWS V14.01,2013-02-14 09:42:00,
2013-02-14 04:47:00,28.8,26.2,28.94,ENE,68,0.0,0.0,90,0.00,,---,0.00,VWS V14.01,2013-02-14 09:47:00,
2013-02-14 04:52:00,28.6,25.8,28.94,ENE,68,0.0,0.0,89,0.00,,---,0.00,VWS V14.01,2013-02-14 09:52:00,
2013-02-14 04:58:00,28.6,26.0,28.94,ENE,68,0.0,0.0,90,0.00,,---,0.00,VWS V14.01,2013-02-14 09:58:00,
2013-02-14 05:04:00,28.4,25.9,28.94,ENE,68,0.0,0.0,90,0.00,,---,0.00,VWS V14.01,2013-02-14 10:04:00,
2013-02-14 05:09:00,28.4,25.9,28.94,ENE,68,0.0,0.0,90,0.00,,---,0.00,VWS V14.01,2013-02-14 10:09:00,
2013-02-14 05:14:00,28.4,25.9,28.94,ENE,68,0.0,0.0,90,0.00,,---,0.00,VWS V14.01,2013-02-14 10:14:00,
2013-02-14 05:19:00,28.4,25.9,28.97,ENE,68,0.0,0.0,90,0.00,,---,0.00,VWS V14.01,2013-02-14 10:19:00,
2013-02-14 05:24:00,28.4,25.9,28.97,ENE,68,0.0,0.0,90,0.00,,---,0.00,VWS V14.01,2013-02-14 10:24:00,
2013-02-14 05:29:00,28.2,25.7,28.97,ENE,68,0.0,0.0,90,0.00,,---,0.00,VWS V14.01,2013-02-14 10:29:00,
2013-02-14 05:34:00,28.0,25.5,28.94,ENE,68,0.0,0.0,90,0.00,,---,0.00,VWS V14.01,2013-02-14 10:34:00,
2013-02-14 05:39:00,28.0,25.5,28.94,ENE,68,0.0,0.0,90,0.00,,---,0.00,VWS V14.01,2013-02-14 10:39:00,
2013-02-14 05:44:00,28.0,25.5,28.94,ENE,68,0.0,0.0,90,0.00,,---,0.00,VWS V14.01,2013-02-14 10:44:00,
2013-02-14 05:49:00,27.9,25.3,28.97,ENE,68,0.0,0.0,90,0.00,,---,0.00,VWS V14.01,2013-02-14 10:49:00,
2013-02-14 05:54:00,28.0,25.8,28.97,ENE,68,0.0,0.0,91,0.00,,---,0.00,VWS V14.01,2013-02-14 10:54:00,
2013-02-14 05:59:00,27.9,25.6,28.97,North,9,0.0,0.0,91,0.00,,---,0.00,VWS V14.01,2013-02-14 10:59:00,
2013-02-14 06:04:00,27.9,25.3,28.97,North,9,0.0,0.0,90,0.00,,---,0.00,VWS V14.01,2013-02-14 11:04:00,
2013-02-14 06:09:00,27.7,25.1,28.97,North,9,0.0,0.0,90,0.00,,---,0.00,VWS V14.01,2013-02-14 11:09:00,
2013-02-14 06:15:00,27.7,24.9,28.97,North,9,0.0,0.0,89,0.00,,---,0.00,VWS V14.01,2013-02-14 11:15:00,
2013-02-14 06:20:00,27.3,24.2,28.97,North,9,0.0,0.0,88,0.00,,---,0.00,VWS V14.01,2013-02-14 11:20:00,
2013-02-14 06:25:00,27.1,23.8,28.97,North,9,0.0,0.0,87,0.00,,---,0.00,VWS V14.01,2013-02-14 11:25:00,
2013-02-14 06:30:00,27.0,23.3,28.97,North,9,0.0,0.0,86,0.00,,---,0.00,VWS V14.01,2013-02-14 11:30:00,
2013-02-14 06:35:00,27.0,22.8,28.97,North,9,0.0,0.0,84,0.00,,---,0.00,VWS V14.01,2013-02-14 11:35:00,
2013-02-14 06:40:00,26.8,22.3,28.97,North,9,0.0,0.0,83,0.00,,---,0.00,VWS V14.01,2013-02-14 11:40:00,
2013-02-14 06:45:00,26.8,22.3,29.00,North,9,0.0,0.0,83,0.00,,---,0.00,VWS V14.01,2013-02-14 11:45:00,
2013-02-14 06:51:00,26.8,22.0,29.00,North,9,0.0,0.0,82,0.00,,---,0.00,VWS V14.01,2013-02-14 11:51:00,
2013-02-14 06:56:00,26.6,21.6,29.00,North,9,0.0,0.0,81,0.00,,---,0.00,VWS V14.01,2013-02-14 11:56:00,
2013-02-14 07:01:00,26.6,21.6,29.00,North,9,0.0,0.0,81,0.00,,---,0.00,VWS V14.01,2013-02-14 12:01:00,
2013-02-14 07:06:00,26.8,21.7,29.00,North,9,0.0,0.0,81,0.00,,---,0.00,VWS V14.01,2013-02-14 12:06:00,
2013-02-14 07:11:00,26.8,21.7,29.00,North,9,0.0,0.0,81,0.00,,---,0.00,VWS V14.01,2013-02-14 12:11:00,
2013-02-14 07:16:00,27.0,21.9,29.00,North,9,0.0,0.0,81,0.00,,---,0.00,VWS V14.01,2013-02-14 12:16:00,
2013-02-14 07:21:00,27.1,22.1,29.00,North,9,0.0,0.0,81,0.00,,---,0.00,VWS V14.01,2013-02-14 12:21:00,
2013-02-14 07:26:00,27.3,22.3,29.00,North,9,0.0,0.0,81,0.00,,---,0.00,VWS V14.01,2013-02-14 12:26:00,
2013-02-14 07:31:00,27.5,22.1,29.03,North,9,0.0,0.0,80,0.00,,---,0.00,VWS V14.01,2013-02-14 12:31:00,
2013-02-14 07:37:00,27.9,22.2,29.03,North,9,0.0,0.0,79,0.00,,---,0.00,VWS V14.01,2013-02-14 12:37:00,
2013-02-14 07:42:00,28.0,22.1,29.03,North,9,0.0,0.0,78,0.00,,---,0.00,VWS V14.01,2013-02-14 12:42:00,
2013-02-14 07:47:00,28.2,22.0,29.03,North,8,0.0,0.0,77,0.00,,---,0.00,VWS V14.01,2013-02-14 12:47:00,
2013-02-14 07:52:00,28.6,21.7,29.03,North,8,3.1,3.6,75,0.00,,---,0.00,VWS V14.01,2013-02-14 12:52:00,
2013-02-14 07:57:00,29.1,20.9,29.03,North,8,2.7,3.6,71,0.00,,---,0.00,VWS V14.01,2013-02-14 12:57:00,
2013-02-14 08:02:00,29.7,19.4,29.03,North,8,2.7,4.0,65,0.00,,---,0.00,VWS V14.01,2013-02-14 13:02:00,
2013-02-14 08:07:00,30.2,17.2,29.03,North,4,4.0,4.9,58,0.00,,---,0.00,VWS V14.01,2013-02-14 13:07:00,
2013-02-14 08:12:00,30.6,16.7,29.03,NNW,339,0.0,3.1,56,0.00,,---,0.00,VWS V14.01,2013-02-14 13:12:00,
2013-02-14 08:17:00,31.1,16.8,29.03,NNW,339,0.0,0.0,55,0.00,,---,0.00,VWS V14.01,2013-02-14 13:17:00,
2013-02-14 08:22:00,31.3,16.1,29.03,NNW,339,0.0,0.0,53,0.00,,---,0.00,VWS V14.01,2013-02-14 13:22:00,
2013-02-14 08:27:00,31.6,15.1,29.03,NNW,329,0.0,4.0,50,0.00,,---,0.00,VWS V14.01,2013-02-14 13:27:00,
2013-02-14 08:32:00,32.0,14.6,29.06,NNW,333,0.0,0.0,48,0.00,,---,0.00,VWS V14.01,2013-02-14 13:32:00,
2013-02-14 08:37:00,32.0,13.1,29.06,NNW,341,0.0,4.5,45,0.00,,---,0.00,VWS V14.01,2013-02-14 13:37:00,
2013-02-14 08:42:00,32.5,12.5,29.06,NNW,344,0.0,4.5,43,0.00,,---,0.00,VWS V14.01,2013-02-14 13:42:00,
2013-02-14 08:47:00,32.7,12.2,29.06,NNW,344,0.0,4.9,42,0.00,,---,0.00,VWS V14.01,2013-02-14 13:47:00,
2013-02-14 08:52:00,32.7,11.1,29.06,North,351,4.5,5.8,40,0.00,,---,0.00,VWS V14.01,2013-02-14 13:52:00,
2013-02-14 08:57:00,33.3,11.6,29.06,North,351,0.0,3.6,40,0.00,,---,0.00,VWS V14.01,2013-02-14 13:57:00,
2013-02-14 09:02:00,33.8,12.1,29.06,North,351,2.7,4.0,40,0.00,,---,0.00,VWS V14.01,2013-02-14 14:02:00,
2013-02-14 09:07:00,34.0,11.6,29.06,North,351,0.0,0.0,39,0.00,,---,0.00,VWS V14.01,2013-02-14 14:07:00,
2013-02-14 09:12:00,34.2,10.6,29.06,NNW,343,0.0,4.5,37,0.00,,---,0.00,VWS V14.01,2013-02-14 14:12:00,
2013-02-14 09:17:00,34.5,10.9,29.09,NNW,343,0.0,0.0,37,0.00,,---,0.00,VWS V14.01,2013-02-14 14:17:00,
2013-02-14 09:22:00,35.1,10.2,29.09,NNW,343,0.0,3.6,35,0.00,,---,0.00,VWS V14.01,2013-02-14 14:22:00,
2013-02-14 09:27:00,35.1,9.5,29.09,NNW,347,2.7,3.1,34,0.00,,---,0.00,VWS V14.01,2013-02-14 14:27:00,
2013-02-14 09:33:00,35.6,8.7,29.09,NNW,347,0.0,0.0,32,0.04,,---,0.04,VWS V14.01,2013-02-14 14:33:00,
2013-02-14 09:39:00,35.8,8.8,29.09,North,351,0.0,0.0,32,0.04,,---,0.04,VWS V14.01,2013-02-14 14:39:00,
2013-02-14 09:44:00,36.3,9.3,29.09,North,351,0.0,2.7,32,0.04,,---,0.04,VWS V14.01,2013-02-14 14:44:00,
2013-02-14 09:49:00,36.0,8.3,29.09,North,351,0.0,3.1,31,0.08,,---,0.08,VWS V14.01,2013-02-14 14:49:00,
2013-02-14 09:54:00,36.1,7.7,29.09,North,2,2.7,5.4,30,0.08,,---,0.08,VWS V14.01,2013-02-14 14:54:00,
2013-02-14 09:59:00,36.3,9.3,29.09,North,2,3.6,3.6,32,0.08,,---,0.08,VWS V14.01,2013-02-14 14:59:00,
2013-02-14 10:04:00,36.5,8.8,29.09,North,1,2.7,4.0,31,0.08,,---,0.08,VWS V14.01,2013-02-14 15:04:00,
2013-02-14 10:09:00,36.7,8.2,29.09,North,1,0.0,0.0,30,0.08,,---,0.08,VWS V14.01,2013-02-14 15:09:00,
2013-02-14 10:14:00,36.9,9.1,29.09,North,1,3.1,3.1,31,0.08,,---,0.08,VWS V14.01,2013-02-14 15:14:00,
2013-02-14 10:19:00,37.0,8.5,29.09,NE,55,0.0,3.1,30,0.08,,---,0.08,VWS V14.01,2013-02-14 15:19:00,
2013-02-14 10:24:00,37.0,8.5,29.09,North,5,3.6,4.5,30,0.08,,---,0.08,VWS V14.01,2013-02-14 15:24:00,
2013-02-14 10:29:00,37.0,8.5,29.09,NE,53,2.7,3.6,30,0.08,,---,0.08,VWS V14.01,2013-02-14 15:29:00,
2013-02-14 10:34:00,36.9,7.6,29.09,ENE,62,0.0,3.1,29,0.04,,---,0.08,VWS V14.01,2013-02-14 15:34:00,
2013-02-14 10:39:00,36.7,8.2,29.09,NNE,12,0.0,0.0,30,0.04,,---,0.08,VWS V14.01,2013-02-14 15:39:00,
2013-02-14 10:44:00,36.9,8.3,29.09,NE,47,0.0,0.0,30,0.04,,---,0.08,VWS V14.01,2013-02-14 15:44:00,
2013-02-14 10:49:00,37.2,8.6,29.09,NE,41,0.0,0.0,30,0.04,,---,0.08,VWS V14.01,2013-02-14 15:49:00,
2013-02-14 10:55:00,37.0,7.8,29.09,ENE,62,0.0,3.6,29,0.00,,---,0.08,VWS V14.01,2013-02-14 15:55:00,
2013-02-14 11:00:00,37.0,7.8,29.09,North,11,2.7,4.0,29,0.00,,---,0.08,VWS V14.01,2013-02-14 16:00:00,
2013-02-14 11:05:00,36.9,7.6,29.09,North,0,3.6,6.3,29,0.00,,---,0.08,VWS V14.01,2013-02-14 16:05:00,
2013-02-14 11:11:00,37.4,8.1,29.09,North,356,0.0,2.7,29,0.00,,---,0.08,VWS V14.01,2013-02-14 16:11:00,
2013-02-14 11:16:00,37.6,8.2,29.09,North,3,4.9,4.9,29,0.00,,---,0.08,VWS V14.01,2013-02-14 16:16:00,
2013-02-14 11:21:00,37.4,8.1,29.09,NNE,17,2.7,3.6,29,0.00,,---,0.08,VWS V14.01,2013-02-14 16:21:00,
2013-02-14 11:26:00,37.4,5.7,29.09,NNE,30,0.0,3.6,26,0.00,,---,0.08,VWS V14.01,2013-02-14 16:26:00,
2013-02-14 11:31:00,37.4,5.7,29.09,ENE,76,0.0,3.6,26,0.00,,---,0.08,VWS V14.01,2013-02-14 16:31:00,
2013-02-14 11:36:00,37.4,5.7,29.09,NNE,16,2.7,2.7,26,0.00,,---,0.08,VWS V14.01,2013-02-14 16:36:00,
2013-02-14 11:41:00,37.6,5.8,29.09,NNE,14,3.6,6.3,26,0.00,,---,0.08,VWS V14.01,2013-02-14 16:41:00,
2013-02-14 11:46:00,37.6,4.1,29.09,NNE,17,0.0,4.0,24,0.00,,---,0.08,VWS V14.01,2013-02-14 16:46:00,
2013-02-14 11:51:00,37.6,4.1,29.09,North,9,4.0,4.0,24,0.00,,---,0.08,VWS V14.01,2013-02-14 16:51:00,
2013-02-14 11:56:00,37.9,4.4,29.09,ENE,62,0.0,4.5,24,0.00,,---,0.08,VWS V14.01,2013-02-14 16:56:00,
2013-02-14 12:01:00,38.1,4.5,29.09,NE,41,0.0,3.6,24,0.00,,---,0.08,VWS V14.01,2013-02-14 17:01:00,
2013-02-14 12:06:00,38.3,4.7,29.09,NNE,27,0.0,0.0,24,0.00,,---,0.08,VWS V14.01,2013-02-14 17:06:00,
2013-02-14 12:11:00,38.7,4.1,29.09,ENE,68,0.0,0.0,23,0.00,,---,0.08,VWS V14.01,2013-02-14 17:11:00,
2013-02-14 12:16:00,39.2,4.5,29.09,ENE,77,0.0,0.0,23,0.00,,---,0.08,VWS V14.01,2013-02-14 17:16:00,
2013-02-14 12:21:00,39.4,4.7,29.09,East,82,0.0,3.1,23,0.00,,---,0.08,VWS V14.01,2013-02-14 17:21:00,
2013-02-14 12:26:00,39.9,5.1,29.09,ENE,73,0.0,0.0,23,0.00,,---,0.08,VWS V14.01,2013-02-14 17:26:00,
2013-02-14 12:31:00,39.7,3.0,29.09,NNE,29,0.0,2.7,21,0.00,,---,0.08,VWS V14.01,2013-02-14 17:31:00,
2013-02-14 12:36:00,39.9,3.2,29.09,North,3,3.1,4.9,21,0.00,,---,0.08,VWS V14.01,2013-02-14 17:36:00,
2013-02-14 12:41:00,39.9,3.2,29.09,North,3,0.0,2.7,21,0.00,,---,0.08,VWS V14.01,2013-02-14 17:41:00,
2013-02-14 12:46:00,40.1,3.3,29.09,ENE,74,3.1,5.4,21,0.00,,---,0.08,VWS V14.01,2013-02-14 17:46:00,
2013-02-14 12:51:00,40.3,3.5,29.09,ENE,67,0.0,0.0,21,0.00,,---,0.08,VWS V14.01,2013-02-14 17:51:00,
2013-02-14 12:56:00,40.3,3.5,29.09,ENE,66,0.0,0.0,21,0.00,,---,0.08,VWS V14.01,2013-02-14 17:56:00,
2013-02-14 13:01:00,40.5,3.6,29.06,ESE,117,2.7,4.9,21,0.00,,---,0.08,VWS V14.01,2013-02-14 18:01:00,
2013-02-14 13:06:00,40.3,3.5,29.06,East,84,0.0,3.6,21,0.00,,---,0.08,VWS V14.01,2013-02-14 18:06:00,
2013-02-14 13:11:00,40.1,3.3,29.06,East,95,3.6,3.6,21,0.00,,---,0.08,VWS V14.01,2013-02-14 18:11:00,
2013-02-14 13:16:00,39.7,3.0,29.06,ENE,72,4.0,4.0,21,0.00,,---,0.08,VWS V14.01,2013-02-14 18:16:00,
2013-02-14 13:21:00,39.7,3.0,29.06,East,95,3.6,3.6,21,0.00,,---,0.08,VWS V14.01,2013-02-14 18:21:00,
2013-02-14 13:26:00,39.7,3.0,29.06,East,94,0.0,0.0,21,0.00,,---,0.08,VWS V14.01,2013-02-14 18:26:00,
2013-02-14 13:31:00,39.2,2.6,29.06,North,351,0.0,3.6,21,0.00,,---,0.08,VWS V14.01,2013-02-14 18:31:00,
2013-02-14 13:37:00,39.2,4.5,29.06,NNE,27,0.0,3.6,23,0.00,,---,0.08,VWS V14.01,2013-02-14 18:37:00,
2013-02-14 13:42:00,38.8,4.2,29.06,West,274,0.0,3.6,23,0.00,,---,0.08,VWS V14.01,2013-02-14 18:42:00,
2013-02-14 13:48:00,38.8,4.2,29.06,West,279,0.0,0.0,23,0.00,,---,0.08,VWS V14.01,2013-02-14 18:48:00,
2013-02-14 13:53:00,38.8,4.2,29.06,NE,52,0.0,3.1,23,0.00,,---,0.08,VWS V14.01,2013-02-14 18:53:00,
2013-02-14 13:58:00,38.8,4.2,29.06,NNW,329,0.0,0.0,23,0.00,,---,0.08,VWS V14.01,2013-02-14 18:58:00,
2013-02-14 14:03:00,39.0,4.4,29.09,SE,128,4.0,4.0,23,0.00,,---,0.08,VWS V14.01,2013-02-14 19:03:00,
2013-02-14 14:09:00,38.8,6.9,29.09,SSE,162,0.0,0.0,26,0.00,,---,0.08,VWS V14.01,2013-02-14 19:09:00,
2013-02-14 14:14:00,38.8,6.9,29.06,SSW,201,0.0,0.0,26,0.00,,---,0.08,VWS V14.01,2013-02-14 19:14:00,
2013-02-14 14:19:00,38.8,6.9,29.06,SSW,201,0.0,0.0,26,0.00,,---,0.08,VWS V14.01,2013-02-14 19:19:00,
2013-02-14 14:24:00,38.7,6.7,29.06,WSW,244,0.0,4.0,26,0.00,,---,0.08,VWS V14.01,2013-02-14 19:24:00,
2013-02-14 14:30:00,38.8,6.9,29.06,SSW,204,0.0,3.6,26,0.00,,---,0.08,VWS V14.01,2013-02-14 19:30:00,
2013-02-14 14:35:00,38.8,8.5,29.06,NNW,344,3.6,4.5,28,0.00,,---,0.08,VWS V14.01,2013-02-14 19:35:00,
2013-02-14 14:40:00,38.8,8.5,29.06,North,4,0.0,0.0,28,0.00,,---,0.08,VWS V14.01,2013-02-14 19:40:00,
2013-02-14 14:45:00,38.7,9.2,29.09,NNW,343,0.0,0.0,29,0.00,,---,0.08,VWS V14.01,2013-02-14 19:45:00,
2013-02-14 14:50:00,38.8,9.3,29.09,WNW,293,3.6,3.6,29,0.00,,---,0.08,VWS V14.01,2013-02-14 19:50:00,
2013-02-14 14:55:00,38.8,9.3,29.09,East,88,0.0,0.0,29,0.00,,---,0.08,VWS V14.01,2013-02-14 19:55:00,
2013-02-14 15:00:00,38.7,9.2,29.09,East,88,0.0,0.0,29,0.00,,---,0.08,VWS V14.01,2013-02-14 20:00:00,
2013-02-14 15:05:00,38.7,9.2,29.09,SE,127,3.6,3.6,29,0.00,,---,0.08,VWS V14.01,2013-02-14 20:05:00,
2013-02-14 15:10:00,38.7,9.2,29.09,ENE,67,0.0,0.0,29,0.00,,---,0.08,VWS V14.01,2013-02-14 20:10:00,
2013-02-14 15:15:00,38.7,9.2,29.09,SSE,152,0.0,0.0,29,0.00,,---,0.08,VWS V14.01,2013-02-14 20:15:00,
2013-02-14 15:20:00,38.5,9.0,29.09,SSE,151,0.0,3.1,29,0.00,,---,0.08,VWS V14.01,2013-02-14 20:20:00,
2013-02-14 15:25:00,38.5,9.0,29.09,SE,140,0.0,3.6,29,0.00,,---,0.08,VWS V14.01,2013-02-14 20:25:00,
2013-02-14 15:30:00,38.3,9.6,29.09,South,189,0.0,0.0,30,0.00,,---,0.08,VWS V14.01,2013-02-14 20:30:00,
2013-02-14 15:35:00,38.1,9.4,29.09,South,177,0.0,0.0,30,0.00,,---,0.08,VWS V14.01,2013-02-14 20:35:00,
2013-02-14 15:41:00,38.1,10.2,29.09,South,177,0.0,0.0,31,0.00,,---,0.08,VWS V14.01,2013-02-14 20:41:00,
2013-02-14 15:46:00,38.1,10.2,29.09,South,177,0.0,0.0,31,0.00,,---,0.08,VWS V14.01,2013-02-14 20:46:00,
2013-02-14 15:51:00,38.1,10.2,29.09,West,266,3.1,3.1,31,0.00,,---,0.08,VWS V14.01,2013-02-14 20:51:00,
2013-02-14 15:56:00,38.1,10.2,29.09,SSE,152,0.0,0.0,31,0.00,,---,0.08,VWS V14.01,2013-02-14 20:56:00,
2013-02-14 16:01:00,37.9,10.0,29.09,SSE,151,0.0,0.0,31,0.00,,---,0.08,VWS V14.01,2013-02-14 21:01:00,
2013-02-14 16:06:00,37.9,10.0,29.09,SSE,151,0.0,0.0,31,0.00,,---,0.08,VWS V14.01,2013-02-14 21:06:00,
2013-02-14 16:11:00,37.8,10.6,29.09,SSE,151,0.0,0.0,32,0.00,,---,0.08,VWS V14.01,2013-02-14 21:11:00,
2013-02-14 16:16:00,37.6,10.4,29.09,SSE,151,0.0,0.0,32,0.00,,---,0.08,VWS V14.01,2013-02-14 21:16:00,
2013-02-14 16:21:00,37.6,10.4,29.09,SSE,151,0.0,0.0,32,0.00,,---,0.08,VWS V14.01,2013-02-14 21:21:00,
2013-02-14 16:26:00,37.4,10.2,29.09,SSE,151,0.0,0.0,32,0.00,,---,0.08,VWS V14.01,2013-02-14 21:26:00,
2013-02-14 16:31:00,37.4,10.2,29.09,NW,308,0.0,0.0,32,0.00,,---,0.08,VWS V14.01,2013-02-14 21:31:00,
2013-02-14 16:36:00,37.2,10.1,29.09,NW,308,0.0,0.0,32,0.00,,---,0.08,VWS V14.01,2013-02-14 21:36:00,
2013-02-14 16:41:00,37.0,9.9,29.09,NW,308,0.0,0.0,32,0.00,,---,0.08,VWS V14.01,2013-02-14 21:41:00,
2013-02-14 16:46:00,36.9,9.8,29.09,NW,308,0.0,0.0,32,0.00,,---,0.08,VWS V14.01,2013-02-14 21:46:00,
2013-02-14 16:51:00,36.9,9.8,29.09,NW,308,0.0,0.0,32,0.00,,---,0.08,VWS V14.01,2013-02-14 21:51:00,
2013-02-14 16:56:00,36.9,9.8,29.09,NW,308,0.0,0.0,32,0.00,,---,0.08,VWS V14.01,2013-02-14 21:56:00,
2013-02-14 17:01:00,36.7,9.6,29.09,NW,308,0.0,0.0,32,0.00,,---,0.08,VWS V14.01,2013-02-14 22:01:00,
2013-02-14 17:06:00,36.7,9.6,29.09,NW,308,0.0,0.0,32,0.00,,---,0.08,VWS V14.01,2013-02-14 22:06:00,
2013-02-14 17:11:00,36.5,9.5,29.09,NW,308,0.0,0.0,32,0.00,,---,0.08,VWS V14.01,2013-02-14 22:11:00,
2013-02-14 17:16:00,36.3,9.3,29.12,NW,308,0.0,0.0,32,0.00,,---,0.08,VWS V14.01,2013-02-14 22:16:00,
2013-02-14 17:22:00,36.1,9.8,29.12,NW,308,0.0,0.0,33,0.00,,---,0.08,VWS V14.01,2013-02-14 22:22:00,
2013-02-14 17:27:00,36.1,9.8,29.12,NW,308,0.0,0.0,33,0.00,,---,0.08,VWS V14.01,2013-02-14 22:27:00,
2013-02-14 17:32:00,36.0,9.7,29.12,NW,308,0.0,0.0,33,0.00,,---,0.08,VWS V14.01,2013-02-14 22:32:00,
2013-02-14 17:38:00,35.8,9.5,29.12,NW,308,0.0,0.0,33,0.00,,---,0.08,VWS V14.01,2013-02-14 22:38:00,
2013-02-14 17:43:00,35.8,9.5,29.12,NW,308,0.0,0.0,33,0.00,,---,0.08,VWS V14.01,2013-02-14 22:43:00,
2013-02-14 17:48:00,35.6,9.4,29.12,NW,308,0.0,0.0,33,0.00,,---,0.08,VWS V14.01,2013-02-14 22:48:00,
2013-02-14 17:53:00,35.6,10.0,29.12,NW,308,0.0,0.0,34,0.00,,---,0.08,VWS V14.01,2013-02-14 22:53:00,
2013-02-14 17:58:00,35.4,9.9,29.12,NW,308,0.0,0.0,34,0.00,,---,0.08,VWS V14.01,2013-02-14 22:58:00,
2013-02-14 18:03:00,35.4,9.9,29.12,NW,308,0.0,0.0,34,0.00,,---,0.08,VWS V14.01,2013-02-14 23:03:00,
2013-02-14 18:08:00,35.2,9.7,29.12,NW,308,0.0,0.0,34,0.00,,---,0.08,VWS V14.01,2013-02-14 23:08:00,
2013-02-14 18:13:00,35.1,9.5,29.12,NW,308,0.0,0.0,34,0.00,,---,0.08,VWS V14.01,2013-02-14 23:13:00,
2013-02-14 18:18:00,35.1,10.2,29.12,NW,308,0.0,0.0,35,0.00,,---,0.08,VWS V14.01,2013-02-14 23:18:00,
2013-02-14 18:23:00,34.9,10.0,29.12,NW,308,0.0,0.0,35,0.00,,---,0.08,VWS V14.01,2013-02-14 23:23:00,
2013-02-14 18:28:00,34.7,9.9,29.12,NW,308,0.0,0.0,35,0.00,,---,0.08,VWS V14.01,2013-02-14 23:28:00,
2013-02-14 18:33:00,34.7,10.5,29.12,NW,308,0.0,0.0,36,0.00,,---,0.08,VWS V14.01,2013-02-14 23:33:00,
2013-02-14 18:38:00,34.7,11.1,29.12,NW,308,0.0,0.0,37,0.00,,---,0.08,VWS V14.01,2013-02-14 23:38:00,
2013-02-14 18:43:00,34.5,10.9,29.12,NW,308,0.0,0.0,37,0.00,,---,0.08,VWS V14.01,2013-02-14 23:43:00,
2013-02-14 18:48:00,34.5,10.9,29.12,NW,308,0.0,0.0,37,0.00,,---,0.08,VWS V14.01,2013-02-14 23:48:00,
2013-02-14 18:53:00,34.3,11.4,29.12,NW,308,0.0,0.0,38,0.00,,---,0.08,VWS V14.01,2013-02-14 23:53:00,
2013-02-14 18:58:00,34.3,11.4,29.12,NW,308,0.0,0.0,38,0.00,,---,0.08,VWS V14.01,2013-02-14 23:58:00,
2013-02-14 19:03:00,34.3,12.0,29.12,NW,308,0.0,0.0,39,0.00,,---,0.08,VWS V14.01,2013-02-15 00:03:00,
2013-02-14 19:08:00,34.3,12.0,29.12,NW,308,0.0,0.0,39,0.00,,---,0.08,VWS V14.01,2013-02-15 00:08:00,
2013-02-14 19:13:00,34.2,11.8,29.12,NW,308,0.0,0.0,39,0.00,,---,0.08,VWS V14.01,2013-02-15 00:13:00,
2013-02-14 19:18:00,34.0,11.6,29.12,NW,308,0.0,0.0,39,0.00,,---,0.08,VWS V14.01,2013-02-15 00:18:00,
2013-02-14 19:23:00,34.0,12.2,29.12,NW,308,0.0,0.0,40,0.00,,---,0.08,VWS V14.01,2013-02-15 00:23:00,
2013-02-14 19:28:00,33.8,12.1,29.12,NW,308,0.0,0.0,40,0.00,,---,0.08,VWS V14.01,2013-02-15 00:28:00,
2013-02-14 19:33:00,33.8,12.1,29.12,NW,308,0.0,0.0,40,0.00,,---,0.08,VWS V14.01,2013-02-15 00:33:00,
2013-02-14 19:38:00,33.8,12.1,29.12,NW,308,0.0,0.0,40,0.00,,---,0.08,VWS V14.01,2013-02-15 00:38:00,
2013-02-14 19:43:00,33.6,11.9,29.12,NW,308,0.0,0.0,40,0.00,,---,0.08,VWS V14.01,2013-02-15 00:43:00,
2013-02-14 19:49:00,33.6,11.9,29.12,NW,308,0.0,0.0,40,0.00,,---,0.08,VWS V14.01,2013-02-15 00:49:00,
2013-02-14 19:54:00,33.4,11.7,29.12,NW,308,0.0,0.0,40,0.00,,---,0.08,VWS V14.01,2013-02-15 00:54:00,
2013-02-14 19:59:00,33.4,11.7,29.12,NW,308,0.0,0.0,40,0.00,,---,0.08,VWS V14.01,2013-02-15 00:59:00,
2013-02-14 20:04:00,33.4,11.7,29.12,NW,308,0.0,0.0,40,0.00,,---,0.08,VWS V14.01,2013-02-15 01:04:00,
2013-02-14 20:09:00,33.6,11.9,29.12,NW,308,0.0,0.0,40,0.00,,---,0.08,VWS V14.01,2013-02-15 01:09:00,
2013-02-14 20:14:00,33.6,11.9,29.12,NW,308,0.0,0.0,40,0.00,,---,0.08,VWS V14.01,2013-02-15 01:14:00,
2013-02-14 20:19:00,33.6,11.9,29.12,NW,308,0.0,0.0,40,0.00,,---,0.08,VWS V14.01,2013-02-15 01:19:00,
2013-02-14 20:24:00,33.6,11.9,29.12,NW,308,0.0,0.0,40,0.00,,---,0.08,VWS V14.01,2013-02-15 01:24:00,
2013-02-14 20:29:00,33.8,12.6,29.12,NW,308,0.0,0.0,41,0.00,,---,0.08,VWS V14.01,2013-02-15 01:29:00,
2013-02-14 20:35:00,33.8,12.6,29.12,NW,308,0.0,0.0,41,0.00,,---,0.08,VWS V14.01,2013-02-15 01:35:00,
2013-02-14 20:40:00,33.8,12.6,29.12,NW,308,0.0,0.0,41,0.00,,---,0.08,VWS V14.01,2013-02-15 01:40:00,
2013-02-14 20:46:00,33.8,12.6,29.12,NW,308,0.0,0.0,41,0.00,,---,0.08,VWS V14.01,2013-02-15 01:46:00,
2013-02-14 20:51:00,33.6,12.4,29.12,NW,308,0.0,0.0,41,0.00,,---,0.08,VWS V14.01,2013-02-15 01:51:00,
2013-02-14 20:57:00,33.6,13.0,29.12,NW,308,0.0,0.0,42,0.00,,---,0.08,VWS V14.01,2013-02-15 01:57:00,
2013-02-14 21:02:00,33.6,13.0,29.12,NW,308,0.0,0.0,42,0.00,,---,0.08,VWS V14.01,2013-02-15 02:02:00,
2013-02-14 21:07:00,33.8,13.1,29.12,NW,308,0.0,0.0,42,0.00,,---,0.08,VWS V14.01,2013-02-15 02:07:00,
2013-02-14 21:12:00,33.6,13.0,29.12,NW,308,0.0,0.0,42,0.00,,---,0.08,VWS V14.01,2013-02-15 02:12:00,
2013-02-14 21:17:00,33.6,13.0,29.12,NW,308,0.0,0.0,42,0.00,,---,0.08,VWS V14.01,2013-02-15 02:17:00,
2013-02-14 21:22:00,33.6,13.0,29.12,NW,308,0.0,0.0,42,0.00,,---,0.08,VWS V14.01,2013-02-15 02:22:00,
2013-02-14 21:27:00,33.6,13.5,29.12,NW,308,0.0,0.0,43,0.00,,---,0.08,VWS V14.01,2013-02-15 02:27:00,
2013-02-14 21:32:00,33.6,13.5,29.12,NW,308,0.0,0.0,43,0.00,,---,0.08,VWS V14.01,2013-02-15 02:32:00,
2013-02-14 21:37:00,33.6,13.5,29.12,NW,308,0.0,0.0,43,0.00,,---,0.08,VWS V14.01,2013-02-15 02:37:00,
2013-02-14 21:42:00,33.6,13.5,29.12,NW,308,0.0,0.0,43,0.00,,---,0.08,VWS V14.01,2013-02-15 02:42:00,
2013-02-14 21:47:00,33.6,13.5,29.12,NW,308,0.0,0.0,43,0.00,,---,0.08,VWS V14.01,2013-02-15 02:47:00,
2013-02-14 21:52:00,33.6,13.5,29.12,NW,308,0.0,0.0,43,0.00,,---,0.08,VWS V14.01,2013-02-15 02:52:00,
2013-02-14 21:57:00,33.4,13.4,29.12,NW,308,0.0,0.0,43,0.00,,---,0.08,VWS V14.01,2013-02-15 02:57:00,
2013-02-14 22:02:00,33.3,13.2,29.12,NW,308,0.0,0.0,43,0.00,,---,0.08,VWS V14.01,2013-02-15 03:02:00,
2013-02-14 22:07:00,33.3,13.2,29.12,NW,308,0.0,0.0,43,0.00,,---,0.08,VWS V14.01,2013-02-15 03:07:00,
2013-02-14 22:12:00,33.1,13.0,29.12,NW,308,0.0,0.0,43,0.00,,---,0.08,VWS V14.01,2013-02-15 03:12:00,
2013-02-14 22:17:00,33.1,13.0,29.12,NW,308,0.0,0.0,43,0.00,,---,0.08,VWS V14.01,2013-02-15 03:17:00,
2013-02-14 22:22:00,33.1,13.0,29.12,NW,308,0.0,0.0,43,0.00,,---,0.08,VWS V14.01,2013-02-15 03:22:00,
2013-02-14 22:28:00,33.1,13.6,29.12,NW,308,0.0,0.0,44,0.00,,---,0.08,VWS V14.01,2013-02-15 03:28:00,
2013-02-14 22:33:00,33.3,13.7,29.12,NW,308,0.0,0.0,44,0.00,,---,0.08,VWS V14.01,2013-02-15 03:33:00,
2013-02-14 22:38:00,33.3,13.7,29.12,NW,308,0.0,0.0,44,0.00,,---,0.08,VWS V14.01,2013-02-15 03:38:00,
2013-02-14 22:43:00,33.1,13.6,29.12,NW,308,0.0,0.0,44,0.00,,---,0.08,VWS V14.01,2013-02-15 03:43:00,
2013-02-14 22:48:00,33.3,13.7,29.12,NW,308,0.0,0.0,44,0.00,,---,0.08,VWS V14.01,2013-02-15 03:48:00,
2013-02-14 22:53:00,33.3,14.2,29.12,NW,308,0.0,0.0,45,0.00,,---,0.08,VWS V14.01,2013-02-15 03:53:00,
2013-02-14 22:58:00,33.4,14.4,29.12,NW,308,0.0,0.0,45,0.00,,---,0.08,VWS V14.01,2013-02-15 03:58:00,
2013-02-14 23:03:00,33.4,14.4,29.12,NW,308,0.0,0.0,45,0.00,,---,0.08,VWS V14.01,2013-02-15 04:03:00,
2013-02-14 23:08:00,33.3,14.2,29.12,NW,308,0.0,0.0,45,0.00,,---,0.08,VWS V14.01,2013-02-15 04:08:00,
2013-02-14 23:13:00,33.3,14.2,29.12,NW,308,0.0,0.0,45,0.00,,---,0.08,VWS V14.01,2013-02-15 04:13:00,
2013-02-14 23:18:00,33.1,14.1,29.12,NW,308,0.0,0.0,45,0.00,,---,0.08,VWS V14.01,2013-02-15 04:18:00,
2013-02-14 23:24:00,33.1,14.1,29.12,NW,308,0.0,0.0,45,0.00,,---,0.08,VWS V14.01,2013-02-15 04:24:00,
2013-02-14 23:29:00,32.7,14.2,29.12,NW,308,0.0,0.0,46,0.00,,---,0.08,VWS V14.01,2013-02-15 04:29:00,
2013-02-14 23:34:00,32.7,14.2,29.12,NW,308,0.0,0.0,46,0.00,,---,0.08,VWS V14.01,2013-02-15 04:34:00,
2013-02-14 23:39:00,32.7,14.2,29.12,NW,308,0.0,0.0,46,0.00,,---,0.08,VWS V14.01,2013-02-15 04:39:00,
2013-02-14 23:44:00,32.7,14.7,29.15,NW,308,0.0,0.0,47,0.00,,---,0.08,VWS V14.01,2013-02-15 04:44:00,
2013-02-14 23:49:00,32.7,14.7,29.15,NW,308,0.0,0.0,47,0.00,,---,0.08,VWS V14.01,2013-02-15 04:49:00,
2013-02-14 23:55:00,32.7,14.7,29.15,NW,308,0.0,0.0,47,0.00,,---,0.08,VWS V14.01,2013-02-15 04:55:00,